sensor_id;sensor_type;location;lat;lon;timestamp;pressure;altitude;pressure_sealevel;temperature;humidity
47815;BME280;33579;50.058;18.130;2023-08-24T00:00:00;99483.19;;;19.44;100.00
47815;BME280;33579;50.058;18.130;2023-08-24T00:01:02;99478.03;;;19.43;100.00
47815;BME280;33579;50.058;18.130;2023-08-24T00:02:03;99474.72;;;19.41;100.00
47815;BME280;33579;50.058;18.130;2023-08-24T00:03:05;99480.69;;;19.43;100.00
47815;BME280;33579;50.058;18.130;2023-08-24T00:04:07;99475.63;;;19.33;100.00
47815;BME280;33579;50.058;18.130;2023-08-24T00:05:09;99473.63;;;19.35;100.00
47815;BME280;33579;50.058;18.130;2023-08-24T00:06:10;99480.16;;;19.32;100.00
47815;BME280;33579;50.058;18.130;2023-08-24T00:07:12;99479.22;;;19.25;100.00
47815;BME280;33579;50.058;18.130;2023-08-24T00:08:14;99476.72;;;19.23;100.00
47815;BME280;33579;50.058;18.130;2023-08-24T00:09:15;99479.22;;;19.25;100.00
47815;BME280;33579;50.058;18.130;2023-08-24T00:10:17;99482.72;;;19.26;100.00
47815;BME280;33579;50.058;18.130;2023-08-24T00:11:19;99478.13;;;19.19;100.00
47815;BME280;33579;50.058;18.130;2023-08-24T00:12:20;99487.59;;;19.22;100.00
47815;BME280;33579;50.058;18.130;2023-08-24T00:13:22;99487.41;;;19.23;100.00
47815;BME280;33579;50.058;18.130;2023-08-24T00:14:24;99489.91;;;19.25;100.00
47815;BME280;33579;50.058;18.130;2023-08-24T00:15:25;99488.50;;;19.29;100.00
47815;BME280;33579;50.058;18.130;2023-08-24T00:16:27;99490.47;;;19.35;100.00
47815;BME280;33579;50.058;18.130;2023-08-24T00:17:29;99485.38;;;19.41;100.00
47815;BME280;33579;50.058;18.130;2023-08-24T00:18:31;99488.25;;;19.39;100.00
47815;BME280;33579;50.058;18.130;2023-08-24T00:19:32;99487.59;;;19.37;100.00
47815;BME280;33579;50.058;18.130;2023-08-24T00:20:34;99486.69;;;19.30;100.00
47815;BME280;33579;50.058;18.130;2023-08-24T00:21:36;99484.41;;;19.27;100.00
47815;BME280;33579;50.058;18.130;2023-08-24T00:22:38;99494.06;;;19.28;100.00
47815;BME280;33579;50.058;18.130;2023-08-24T00:23:40;99488.88;;;19.26;100.00
47815;BME280;33579;50.058;18.130;2023-08-24T00:24:41;99488.63;;;19.21;100.00
47815;BME280;33579;50.058;18.130;2023-08-24T00:25:43;99494.28;;;19.18;100.00
47815;BME280;33579;50.058;18.130;2023-08-24T00:26:45;99493.00;;;19.14;100.00
47815;BME280;33579;50.058;18.130;2023-08-24T00:27:46;99491.44;;;19.04;100.00
47815;BME280;33579;50.058;18.130;2023-08-24T00:28:48;99494.66;;;19.00;100.00
47815;BME280;33579;50.058;18.130;2023-08-24T00:29:50;99482.97;;;19.01;100.00
47815;BME280;33579;50.058;18.130;2023-08-24T00:30:52;99484.91;;;19.07;100.00
47815;BME280;33579;50.058;18.130;2023-08-24T00:31:53;99488.41;;;19.07;100.00
47815;BME280;33579;50.058;18.130;2023-08-24T00:32:55;99493.72;;;19.07;100.00
47815;BME280;33579;50.058;18.130;2023-08-24T00:33:57;99488.41;;;19.07;100.00
47815;BME280;33579;50.058;18.130;2023-08-24T00:34:59;99488.88;;;19.11;100.00
47815;BME280;33579;50.058;18.130;2023-08-24T00:36:02;99490.53;;;19.12;100.00
47815;BME280;33579;50.058;18.130;2023-08-24T00:37:04;99489.88;;;19.10;100.00
47815;BME280;33579;50.058;18.130;2023-08-24T00:38:06;99487.97;;;19.04;100.00
47815;BME280;33579;50.058;18.130;2023-08-24T00:39:08;99485.81;;;18.99;100.00
47815;BME280;33579;50.058;18.130;2023-08-24T00:40:11;99488.13;;;19.02;100.00
47815;BME280;33579;50.058;18.130;2023-08-24T00:41:13;99485.72;;;19.07;100.00
47815;BME280;33579;50.058;18.130;2023-08-24T00:42:15;99481.97;;;19.02;100.00
47815;BME280;33579;50.058;18.130;2023-08-24T00:43:16;99486.97;;;18.96;100.00
47815;BME280;33579;50.058;18.130;2023-08-24T00:44:18;99483.41;;;18.89;100.00
47815;BME280;33579;50.058;18.130;2023-08-24T00:45:20;99483.00;;;18.77;100.00
47815;BME280;33579;50.058;18.130;2023-08-24T00:46:22;99478.41;;;18.71;100.00
47815;BME280;33579;50.058;18.130;2023-08-24T00:47:24;99476.28;;;18.66;100.00
47815;BME280;33579;50.058;18.130;2023-08-24T00:48:27;99481.59;;;18.66;100.00
47815;BME280;33579;50.058;18.130;2023-08-24T00:49:28;99476.50;;;18.57;100.00
47815;BME280;33579;50.058;18.130;2023-08-24T00:50:31;99496.16;;;18.56;100.00
47815;BME280;33579;50.058;18.130;2023-08-24T00:51:32;99484.31;;;18.58;100.00
47815;BME280;33579;50.058;18.130;2023-08-24T00:52:38;99486.81;;;18.60;100.00
47815;BME280;33579;50.058;18.130;2023-08-24T00:53:41;99481.28;;;18.61;100.00
47815;BME280;33579;50.058;18.130;2023-08-24T00:54:43;99476.81;;;18.62;100.00
47815;BME280;33579;50.058;18.130;2023-08-24T00:55:44;99481.94;;;18.63;100.00
47815;BME280;33579;50.058;18.130;2023-08-24T00:56:46;99483.25;;;18.67;100.00
47815;BME280;33579;50.058;18.130;2023-08-24T00:57:48;99479.59;;;18.68;100.00
47815;BME280;33579;50.058;18.130;2023-08-24T00:58:53;99483.91;;;18.70;100.00
47815;BME280;33579;50.058;18.130;2023-08-24T00:59:56;99485.56;;;18.71;100.00
47815;BME280;33579;50.058;18.130;2023-08-24T01:00:58;99484.06;;;18.68;100.00
47815;BME280;33579;50.058;18.130;2023-08-24T01:02:01;99492.69;;;18.70;100.00
47815;BME280;33579;50.058;18.130;2023-08-24T01:03:04;99488.69;;;18.74;100.00
47815;BME280;33579;50.058;18.130;2023-08-24T01:04:06;99481.81;;;18.80;100.00
47815;BME280;33579;50.058;18.130;2023-08-24T01:05:08;99492.28;;;18.81;100.00
47815;BME280;33579;50.058;18.130;2023-08-24T01:06:10;99482.53;;;18.74;100.00
47815;BME280;33579;50.058;18.130;2023-08-24T01:07:11;99494.03;;;18.74;100.00
47815;BME280;33579;50.058;18.130;2023-08-24T01:08:14;99489.34;;;18.76;100.00
47815;BME280;33579;50.058;18.130;2023-08-24T01:09:16;99489.16;;;18.78;100.00
47815;BME280;33579;50.058;18.130;2023-08-24T01:10:18;99493.00;;;18.75;100.00
47815;BME280;33579;50.058;18.130;2023-08-24T01:11:31;99493.53;;;18.71;100.00
47815;BME280;33579;50.058;18.130;2023-08-24T01:12:57;99496.56;;;18.67;100.00
47815;BME280;33579;50.058;18.130;2023-08-24T01:14:13;99492.59;;;18.63;100.00
47815;BME280;33579;50.058;18.130;2023-08-24T01:15:32;99491.94;;;18.61;100.00
47815;BME280;33579;50.058;18.130;2023-08-24T01:16:38;99488.94;;;18.64;100.00
47815;BME280;33579;50.058;18.130;2023-08-24T01:17:42;99487.75;;;18.67;100.00
47815;BME280;33579;50.058;18.130;2023-08-24T01:18:45;99492.59;;;18.63;100.00
47815;BME280;33579;50.058;18.130;2023-08-24T01:19:48;99490.28;;;18.60;100.00
47815;BME280;33579;50.058;18.130;2023-08-24T01:20:50;99480.81;;;18.58;100.00
47815;BME280;33579;50.058;18.130;2023-08-24T01:21:54;99491.78;;;18.63;100.00
47815;BME280;33579;50.058;18.130;2023-08-24T01:23:27;99482.88;;;18.71;100.00
47815;BME280;33579;50.058;18.130;2023-08-24T01:24:53;99485.50;;;18.79;100.00
47815;BME280;33579;50.058;18.130;2023-08-24T01:26:07;99485.84;;;18.76;100.00
47815;BME280;33579;50.058;18.130;2023-08-24T01:27:10;99480.06;;;18.72;100.00
47815;BME280;33579;50.058;18.130;2023-08-24T01:28:13;99483.53;;;18.73;100.00
47815;BME280;33579;50.058;18.130;2023-08-24T01:29:16;99489.50;;;18.75;100.00
47815;BME280;33579;50.058;18.130;2023-08-24T01:30:18;99482.19;;;18.77;100.00
47815;BME280;33579;50.058;18.130;2023-08-24T01:31:20;99486.19;;;18.73;100.00
47815;BME280;33579;50.058;18.130;2023-08-24T01:32:22;99485.28;;;18.80;100.00
47815;BME280;33579;50.058;18.130;2023-08-24T01:33:24;99484.13;;;18.83;100.00
47815;BME280;33579;50.058;18.130;2023-08-24T01:34:27;99483.06;;;18.69;100.00
47815;BME280;33579;50.058;18.130;2023-08-24T01:35:30;99484.59;;;18.63;100.00
47815;BME280;33579;50.058;18.130;2023-08-24T01:36:33;99481.81;;;18.57;100.00
47815;BME280;33579;50.058;18.130;2023-08-24T01:37:35;99491.38;;;18.51;100.00
47815;BME280;33579;50.058;18.130;2023-08-24T01:38:37;99495.56;;;18.45;100.00
47815;BME280;33579;50.058;18.130;2023-08-24T01:39:46;99492.78;;;18.38;100.00
47815;BME280;33579;50.058;18.130;2023-08-24T01:42:16;99495.84;;;18.27;100.00
47815;BME280;33579;50.058;18.130;2023-08-24T01:43:20;99493.44;;;18.17;100.00
47815;BME280;33579;50.058;18.130;2023-08-24T01:44:39;99496.97;;;18.09;100.00
47815;BME280;33579;50.058;18.130;2023-08-24T01:45:46;99491.00;;;18.07;100.00
47815;BME280;33579;50.058;18.130;2023-08-24T01:46:49;99491.50;;;18.11;100.00
47815;BME280;33579;50.058;18.130;2023-08-24T01:47:54;99481.25;;;18.23;100.00
47815;BME280;33579;50.058;18.130;2023-08-24T01:48:57;99486.22;;;18.26;100.00
47815;BME280;33579;50.058;18.130;2023-08-24T01:50:00;99490.25;;;18.22;100.00
47815;BME280;33579;50.058;18.130;2023-08-24T01:51:03;99480.31;;;18.16;100.00
47815;BME280;33579;50.058;18.130;2023-08-24T01:52:05;99485.31;;;18.10;100.00
47815;BME280;33579;50.058;18.130;2023-08-24T01:53:07;99487.34;;;18.08;100.00
47815;BME280;33579;50.058;18.130;2023-08-24T01:54:09;99486.69;;;18.06;100.00
47815;BME280;33579;50.058;18.130;2023-08-24T01:55:11;99488.88;;;18.03;100.00
47815;BME280;33579;50.058;18.130;2023-08-24T01:56:15;99492.38;;;18.03;100.00
47815;BME280;33579;50.058;18.130;2023-08-24T01:57:17;99484.50;;;18.02;100.00
47815;BME280;33579;50.058;18.130;2023-08-24T01:58:20;99490.66;;;18.02;100.00
47815;BME280;33579;50.058;18.130;2023-08-24T01:59:22;99477.94;;;17.89;100.00
47815;BME280;33579;50.058;18.130;2023-08-24T02:00:23;99483.00;;;17.67;100.00
47815;BME280;33579;50.058;18.130;2023-08-24T02:01:25;99485.78;;;17.34;100.00
47815;BME280;33579;50.058;18.130;2023-08-24T02:02:27;99485.34;;;17.14;100.00
47815;BME280;33579;50.058;18.130;2023-08-24T02:03:29;99485.38;;;17.06;100.00
47815;BME280;33579;50.058;18.130;2023-08-24T02:04:31;99481.38;;;17.02;100.00
47815;BME280;33579;50.058;18.130;2023-08-24T02:05:32;99475.72;;;16.96;100.00
47815;BME280;33579;50.058;18.130;2023-08-24T02:06:34;99477.22;;;16.99;100.00
47815;BME280;33579;50.058;18.130;2023-08-24T02:07:38;99479.72;;;17.09;100.00
47815;BME280;33579;50.058;18.130;2023-08-24T02:08:40;99480.50;;;17.26;100.00
47815;BME280;33579;50.058;18.130;2023-08-24T02:09:42;99482.81;;;17.37;100.00
47815;BME280;33579;50.058;18.130;2023-08-24T02:10:44;99476.28;;;17.40;100.00
47815;BME280;33579;50.058;18.130;2023-08-24T02:11:45;99482.28;;;17.42;100.00
47815;BME280;33579;50.058;18.130;2023-08-24T02:12:47;99483.59;;;17.46;100.00
47815;BME280;33579;50.058;18.130;2023-08-24T02:13:49;99480.78;;;17.48;100.00
47815;BME280;33579;50.058;18.130;2023-08-24T02:14:50;99486.56;;;17.51;100.00
47815;BME280;33579;50.058;18.130;2023-08-24T02:16:12;99486.91;;;17.48;100.00
47815;BME280;33579;50.058;18.130;2023-08-24T02:17:14;99475.09;;;17.51;100.00
47815;BME280;33579;50.058;18.130;2023-08-24T02:18:16;99485.22;;;17.55;100.00
47815;BME280;33579;50.058;18.130;2023-08-24T02:19:17;99484.88;;;17.59;100.00
47815;BME280;33579;50.058;18.130;2023-08-24T02:20:19;99480.56;;;17.58;100.00
47815;BME280;33579;50.058;18.130;2023-08-24T02:21:20;99477.72;;;17.59;100.00
47815;BME280;33579;50.058;18.130;2023-08-24T02:22:22;99476.75;;;17.60;100.00
47815;BME280;33579;50.058;18.130;2023-08-24T02:23:24;99475.91;;;17.60;100.00
47815;BME280;33579;50.058;18.130;2023-08-24T02:24:25;99472.22;;;17.61;100.00
47815;BME280;33579;50.058;18.130;2023-08-24T02:25:27;99470.22;;;17.63;100.00
47815;BME280;33579;50.058;18.130;2023-08-24T02:26:29;99475.88;;;17.68;100.00
47815;BME280;33579;50.058;18.130;2023-08-24T02:27:33;99482.66;;;17.70;100.00
47815;BME280;33579;50.058;18.130;2023-08-24T02:28:37;99473.88;;;17.70;100.00
47815;BME280;33579;50.058;18.130;2023-08-24T02:29:38;99474.69;;;17.70;100.00
47815;BME280;33579;50.058;18.130;2023-08-24T02:30:40;99483.00;;;17.67;100.00
47815;BME280;33579;50.058;18.130;2023-08-24T02:31:42;99477.69;;;17.67;100.00
47815;BME280;33579;50.058;18.130;2023-08-24T02:32:43;99481.19;;;17.68;100.00
47815;BME280;33579;50.058;18.130;2023-08-24T02:33:45;99476.69;;;17.68;100.00
47815;BME280;33579;50.058;18.130;2023-08-24T02:34:47;99477.88;;;17.66;100.00
47815;BME280;33579;50.058;18.130;2023-08-24T02:35:49;99469.56;;;17.61;100.00
47815;BME280;33579;50.058;18.130;2023-08-24T02:36:50;99478.84;;;17.65;100.00
47815;BME280;33579;50.058;18.130;2023-08-24T02:37:53;99478.22;;;17.63;100.00
47815;BME280;33579;50.058;18.130;2023-08-24T02:38:54;99475.25;;;17.58;100.00
47815;BME280;33579;50.058;18.130;2023-08-24T02:39:56;99483.72;;;17.61;100.00
47815;BME280;33579;50.058;18.130;2023-08-24T02:41:05;99476.38;;;17.63;100.00
47815;BME280;33579;50.058;18.130;2023-08-24T02:42:07;99469.06;;;17.65;100.00
47815;BME280;33579;50.058;18.130;2023-08-24T02:43:08;99472.06;;;17.62;100.00
47815;BME280;33579;50.058;18.130;2023-08-24T02:44:10;99466.78;;;17.54;100.00
47815;BME280;33579;50.058;18.130;2023-08-24T02:45:12;99475.41;;;17.56;100.00
47815;BME280;33579;50.058;18.130;2023-08-24T02:46:13;99474.25;;;17.59;100.00
47815;BME280;33579;50.058;18.130;2023-08-24T02:47:15;99478.25;;;17.54;100.00
47815;BME280;33579;50.058;18.130;2023-08-24T02:48:17;99477.41;;;17.54;100.00
47815;BME280;33579;50.058;18.130;2023-08-24T02:49:18;99475.09;;;17.51;100.00
47815;BME280;33579;50.058;18.130;2023-08-24T02:50:20;99474.47;;;17.49;100.00
47815;BME280;33579;50.058;18.130;2023-08-24T02:51:23;99477.06;;;17.57;100.00
47815;BME280;33579;50.058;18.130;2023-08-24T02:52:24;99475.75;;;17.53;100.00
47815;BME280;33579;50.058;18.130;2023-08-24T02:53:26;99474.75;;;17.54;100.00
47815;BME280;33579;50.058;18.130;2023-08-24T02:54:28;99471.28;;;17.53;100.00
47815;BME280;33579;50.058;18.130;2023-08-24T02:55:32;99471.78;;;17.49;100.00
47815;BME280;33579;50.058;18.130;2023-08-24T02:56:33;99474.13;;;17.44;100.00
47815;BME280;33579;50.058;18.130;2023-08-24T02:57:35;99474.31;;;17.42;100.00
47815;BME280;33579;50.058;18.130;2023-08-24T02:58:38;99476.63;;;17.37;100.00
47815;BME280;33579;50.058;18.130;2023-08-24T02:59:39;99476.16;;;17.33;100.00
47815;BME280;33579;50.058;18.130;2023-08-24T03:00:41;99472.69;;;17.33;100.00
47815;BME280;33579;50.058;18.130;2023-08-24T03:01:43;99468.34;;;17.32;100.00
47815;BME280;33579;50.058;18.130;2023-08-24T03:02:45;99470.00;;;17.33;100.00
47815;BME280;33579;50.058;18.130;2023-08-24T03:03:46;99466.84;;;17.37;100.00
47815;BME280;33579;50.058;18.130;2023-08-24T03:04:48;99470.97;;;17.40;100.00
47815;BME280;33579;50.058;18.130;2023-08-24T03:05:59;99474.31;;;17.42;100.00
47815;BME280;33579;50.058;18.130;2023-08-24T03:07:02;99474.31;;;17.42;100.00
47815;BME280;33579;50.058;18.130;2023-08-24T03:08:04;99473.31;;;17.43;100.00
47815;BME280;33579;50.058;18.130;2023-08-24T03:09:06;99476.13;;;17.41;100.00
47815;BME280;33579;50.058;18.130;2023-08-24T03:10:08;99473.47;;;17.41;100.00
47815;BME280;33579;50.058;18.130;2023-08-24T03:11:10;99473.16;;;17.36;100.00
47815;BME280;33579;50.058;18.130;2023-08-24T03:12:12;99470.66;;;17.35;100.00
47815;BME280;33579;50.058;18.130;2023-08-24T03:13:13;99477.16;;;17.32;100.00
47815;BME280;33579;50.058;18.130;2023-08-24T03:14:16;99468.88;;;17.27;100.00
47815;BME280;33579;50.058;18.130;2023-08-24T03:15:17;99470.88;;;17.25;100.00
47815;BME280;33579;50.058;18.130;2023-08-24T03:16:19;99471.88;;;17.24;100.00
47815;BME280;33579;50.058;18.130;2023-08-24T03:17:21;99472.03;;;17.22;100.00
47815;BME280;33579;50.058;18.130;2023-08-24T03:18:23;99473.19;;;17.20;100.00
47815;BME280;33579;50.058;18.130;2023-08-24T03:19:25;99475.03;;;17.19;100.00
47815;BME280;33579;50.058;18.130;2023-08-24T03:20:26;99471.38;;;17.20;100.00
47815;BME280;33579;50.058;18.130;2023-08-24T03:21:28;99472.53;;;17.18;100.00
47815;BME280;33579;50.058;18.130;2023-08-24T03:22:30;99473.38;;;17.18;100.00
47815;BME280;33579;50.058;18.130;2023-08-24T03:23:32;99467.56;;;17.14;100.00
47815;BME280;33579;50.058;18.130;2023-08-24T03:24:34;99472.22;;;17.12;100.00
47815;BME280;33579;50.058;18.130;2023-08-24T03:25:36;99464.41;;;17.11;100.00
47815;BME280;33579;50.058;18.130;2023-08-24T03:26:38;99467.56;;;17.14;100.00
47815;BME280;33579;50.058;18.130;2023-08-24T03:27:40;99466.56;;;17.16;100.00
47815;BME280;33579;50.058;18.130;2023-08-24T03:28:42;99465.91;;;17.13;100.00
47815;BME280;33579;50.058;18.130;2023-08-24T03:29:44;99474.91;;;17.12;100.00
47815;BME280;33579;50.058;18.130;2023-08-24T03:30:51;99472.22;;;17.12;100.00
47815;BME280;33579;50.058;18.130;2023-08-24T03:31:53;99471.56;;;17.10;100.00
47815;BME280;33579;50.058;18.130;2023-08-24T03:32:55;99474.03;;;17.12;100.00
47815;BME280;33579;50.058;18.130;2023-08-24T03:33:57;99469.88;;;17.09;100.00
47815;BME280;33579;50.058;18.130;2023-08-24T03:34:59;99474.69;;;17.14;100.00
47815;BME280;33579;50.058;18.130;2023-08-24T03:36:01;99473.41;;;17.10;100.00
47815;BME280;33579;50.058;18.130;2023-08-24T03:37:03;99477.72;;;17.11;100.00
47815;BME280;33579;50.058;18.130;2023-08-24T03:38:04;99478.38;;;17.13;100.00
47815;BME280;33579;50.058;18.130;2023-08-24T03:39:06;99475.06;;;17.11;100.00
47815;BME280;33579;50.058;18.130;2023-08-24T03:40:08;99481.38;;;17.10;100.00
47815;BME280;33579;50.058;18.130;2023-08-24T03:41:10;99479.88;;;17.07;100.00
47815;BME280;33579;50.058;18.130;2023-08-24T03:42:11;99476.72;;;17.04;100.00
47815;BME280;33579;50.058;18.130;2023-08-24T03:43:13;99482.38;;;17.00;100.00
47815;BME280;33579;50.058;18.130;2023-08-24T03:44:15;99479.03;;;16.98;100.00
47815;BME280;33579;50.058;18.130;2023-08-24T03:45:16;99480.56;;;17.01;100.00
47815;BME280;33579;50.058;18.130;2023-08-24T03:46:18;99484.03;;;17.02;100.00
47815;BME280;33579;50.058;18.130;2023-08-24T03:47:21;99483.38;;;16.99;100.00
47815;BME280;33579;50.058;18.130;2023-08-24T03:48:23;99484.69;;;16.95;100.00
47815;BME280;33579;50.058;18.130;2023-08-24T03:49:24;99480.19;;;16.96;100.00
47815;BME280;33579;50.058;18.130;2023-08-24T03:50:26;99482.84;;;16.96;100.00
47815;BME280;33579;50.058;18.130;2023-08-24T03:51:28;99482.53;;;16.91;100.00
47815;BME280;33579;50.058;18.130;2023-08-24T03:52:31;99489.66;;;16.90;100.00
47815;BME280;33579;50.058;18.130;2023-08-24T03:53:32;99485.19;;;16.91;100.00
47815;BME280;33579;50.058;18.130;2023-08-24T03:54:34;99475.38;;;16.91;100.00
47815;BME280;33579;50.058;18.130;2023-08-24T03:55:35;99484.34;;;16.90;100.00
47815;BME280;33579;50.058;18.130;2023-08-24T03:56:39;99485.53;;;16.88;100.00
47815;BME280;33579;50.058;18.130;2023-08-24T03:57:41;99487.84;;;16.82;100.00
47815;BME280;33579;50.058;18.130;2023-08-24T03:58:43;99488.03;;;16.81;100.00
47815;BME280;33579;50.058;18.130;2023-08-24T03:59:44;99479.22;;;16.80;100.00
47815;BME280;33579;50.058;18.130;2023-08-24T04:00:46;99491.00;;;16.78;100.00
47815;BME280;33579;50.058;18.130;2023-08-24T04:01:48;99488.03;;;16.81;100.00
47815;BME280;33579;50.058;18.130;2023-08-24T04:02:51;99479.06;;;16.82;100.00
47815;BME280;33579;50.058;18.130;2023-08-24T04:03:58;99480.06;;;16.81;100.00
47815;BME280;33579;50.058;18.130;2023-08-24T04:05:03;99482.38;;;16.84;100.00
47815;BME280;33579;50.058;18.130;2023-08-24T04:06:04;99488.34;;;16.78;100.00
47815;BME280;33579;50.058;18.130;2023-08-24T04:07:06;99490.19;;;16.77;100.00
47815;BME280;33579;50.058;18.130;2023-08-24T04:08:08;99478.56;;;16.78;100.00
47815;BME280;33579;50.058;18.130;2023-08-24T04:09:11;99485.38;;;16.81;100.00
47815;BME280;33579;50.058;18.130;2023-08-24T04:10:12;99490.00;;;16.79;100.00
47815;BME280;33579;50.058;18.130;2023-08-24T04:11:14;99489.03;;;16.71;100.00
47815;BME280;33579;50.058;18.130;2023-08-24T04:12:15;99487.84;;;16.66;100.00
47815;BME280;33579;50.058;18.130;2023-08-24T04:13:18;99485.88;;;16.68;100.00
47815;BME280;33579;50.058;18.130;2023-08-24T04:14:19;99488.19;;;16.71;100.00
47815;BME280;33579;50.058;18.130;2023-08-24T04:15:21;99489.69;;;16.74;100.00
47815;BME280;33579;50.058;18.130;2023-08-24T04:16:24;99491.34;;;16.75;100.00
47815;BME280;33579;50.058;18.130;2023-08-24T04:17:25;99495.16;;;16.72;100.00
47815;BME280;33579;50.058;18.130;2023-08-24T04:18:28;99494.69;;;16.68;100.00
47815;BME280;33579;50.058;18.130;2023-08-24T04:19:29;99487.38;;;16.70;100.00
47815;BME280;33579;50.058;18.130;2023-08-24T04:20:31;99491.03;;;16.69;100.00
47815;BME280;33579;50.058;18.130;2023-08-24T04:21:34;99503.13;;;16.72;100.00
47815;BME280;33579;50.058;18.130;2023-08-24T04:22:35;99491.69;;;16.71;100.00
47815;BME280;33579;50.058;18.130;2023-08-24T04:23:37;99496.50;;;16.76;100.00
47815;BME280;33579;50.058;18.130;2023-08-24T04:24:39;99496.16;;;16.79;100.00
47815;BME280;33579;50.058;18.130;2023-08-24T04:25:40;99497.66;;;16.82;100.00
47815;BME280;33579;50.058;18.130;2023-08-24T04:26:42;99484.69;;;16.79;100.00
47815;BME280;33579;50.058;18.130;2023-08-24T04:27:44;99487.84;;;16.82;100.00
47815;BME280;33579;50.058;18.130;2023-08-24T04:28:45;99490.50;;;16.82;100.00
47815;BME280;33579;50.058;18.130;2023-08-24T04:29:47;99493.66;;;16.86;100.00
47815;BME280;33579;50.058;18.130;2023-08-24T04:30:53;99489.84;;;16.89;100.00
47815;BME280;33579;50.058;18.130;2023-08-24T04:31:54;99497.63;;;16.90;100.00
47815;BME280;33579;50.058;18.130;2023-08-24T04:32:56;99485.84;;;16.93;100.00
47815;BME280;33579;50.058;18.130;2023-08-24T04:33:58;99490.34;;;16.92;100.00
47815;BME280;33579;50.058;18.130;2023-08-24T04:34:59;99487.84;;;16.91;100.00
47815;BME280;33579;50.058;18.130;2023-08-24T04:36:02;99493.16;;;16.91;100.00
47815;BME280;33579;50.058;18.130;2023-08-24T04:37:05;99492.50;;;16.89;100.00
47815;BME280;33579;50.058;18.130;2023-08-24T04:38:07;99486.53;;;16.86;100.00
47815;BME280;33579;50.058;18.130;2023-08-24T04:39:08;99491.00;;;16.86;100.00
47815;BME280;33579;50.058;18.130;2023-08-24T04:40:10;99489.84;;;16.89;100.00
47815;BME280;33579;50.058;18.130;2023-08-24T04:41:12;99483.69;;;16.88;100.00
47815;BME280;33579;50.058;18.130;2023-08-24T04:42:14;99483.19;;;16.93;100.00
47815;BME280;33579;50.058;18.130;2023-08-24T04:43:15;99485.84;;;16.93;100.00
47815;BME280;33579;50.058;18.130;2023-08-24T04:44:17;99489.16;;;16.95;100.00
47815;BME280;33579;50.058;18.130;2023-08-24T04:45:19;99487.84;;;16.99;100.00
47815;BME280;33579;50.058;18.130;2023-08-24T04:46:20;99492.66;;;17.04;100.00
47815;BME280;33579;50.058;18.130;2023-08-24T04:47:22;99494.81;;;17.08;100.00
47815;BME280;33579;50.058;18.130;2023-08-24T04:48:25;99490.34;;;17.09;100.00
47815;BME280;33579;50.058;18.130;2023-08-24T04:49:26;99489.34;;;17.10;100.00
47815;BME280;33579;50.058;18.130;2023-08-24T04:50:28;99492.66;;;17.12;100.00
47815;BME280;33579;50.058;18.130;2023-08-24T04:51:30;99484.34;;;17.15;100.00
47815;BME280;33579;50.058;18.130;2023-08-24T04:52:31;99489.34;;;17.18;100.00
47815;BME280;33579;50.058;18.130;2023-08-24T04:53:33;99490.16;;;17.19;100.00
47815;BME280;33579;50.058;18.130;2023-08-24T04:54:35;99492.31;;;17.23;100.00
47815;BME280;33579;50.058;18.130;2023-08-24T04:55:36;99490.13;;;17.27;100.00
47815;BME280;33579;50.058;18.130;2023-08-24T04:56:38;99486.31;;;17.30;100.00
47815;BME280;33579;50.058;18.130;2023-08-24T04:57:39;99485.78;;;17.34;100.00
47815;BME280;33579;50.058;18.130;2023-08-24T04:58:52;99489.94;;;17.37;100.00
47815;BME280;33579;50.058;18.130;2023-08-24T04:59:54;99488.94;;;17.38;100.00
47815;BME280;33579;50.058;18.130;2023-08-24T05:00:55;99491.94;;;17.43;100.00
47815;BME280;33579;50.058;18.130;2023-08-24T05:01:57;99501.06;;;17.49;100.00
47815;BME280;33579;50.058;18.130;2023-08-24T05:02:59;99500.06;;;17.50;100.00
47815;BME280;33579;50.058;18.130;2023-08-24T05:04:01;99498.53;;;17.55;100.00
47815;BME280;33579;50.058;18.130;2023-08-24T05:05:02;99498.03;;;17.60;100.00
47815;BME280;33579;50.058;18.130;2023-08-24T05:06:04;99496.81;;;17.63;100.00
47815;BME280;33579;50.058;18.130;2023-08-24T05:07:06;99493.84;;;17.66;100.00
47815;BME280;33579;50.058;18.130;2023-08-24T05:08:08;99498.81;;;17.69;100.00
47815;BME280;33579;50.058;18.130;2023-08-24T05:09:13;99494.97;;;17.72;100.00
47815;BME280;33579;50.058;18.130;2023-08-24T05:10:14;99491.13;;;17.74;100.00
47815;BME280;33579;50.058;18.130;2023-08-24T05:11:17;99503.91;;;17.79;100.00
47815;BME280;33579;50.058;18.130;2023-08-24T05:12:19;99493.13;;;17.80;100.00
47815;BME280;33579;50.058;18.130;2023-08-24T05:13:21;99503.69;;;17.89;100.00
47815;BME280;33579;50.058;18.130;2023-08-24T05:14:23;99501.72;;;17.91;100.00
47815;BME280;33579;50.058;18.130;2023-08-24T05:15:25;99500.00;;;17.98;100.00
47815;BME280;33579;50.058;18.130;2023-08-24T05:16:27;99495.84;;;18.04;100.00
47815;BME280;33579;50.058;18.130;2023-08-24T05:17:29;99492.00;;;18.06;100.00
47815;BME280;33579;50.058;18.130;2023-08-24T05:18:30;99506.56;;;18.19;100.00
47815;BME280;33579;50.058;18.130;2023-08-24T05:19:32;99502.66;;;18.30;100.00
47815;BME280;33579;50.058;18.130;2023-08-24T05:20:33;99507.59;;;18.41;100.00
47815;BME280;33579;50.058;18.130;2023-08-24T05:21:35;99507.19;;;18.52;100.00
47815;BME280;33579;50.058;18.130;2023-08-24T05:22:37;99516.88;;;18.68;100.00
47815;BME280;33579;50.058;18.130;2023-08-24T05:23:39;99509.75;;;18.84;100.00
47815;BME280;33579;50.058;18.130;2023-08-24T05:24:41;99499.81;;;19.01;100.00